Historique des mesures à Cassis (13260), France
Quotidien Résumé Novembre 16, 2017 Unités:  Métrique    US   Métrique/US
« Précédent (Jour)
Suivant (Jour) »
Quotidien Hebdomadaire Mensuel Annuel Période au choix
  Maximum: Minimum: Moyenne:
Température: TemperatureC °C 9.2 °C 11 °C
Point de rosée: DewpointC °C 0.2 °C 2.4 °C
Humidité: Humidity % 50 % 52 %
Vitesse du vent: 0 km/h 0 km/h 0 km/h
Rafales: 0 km/h - -
Vent:- - North
Pression: PressurehPa hPa 1014.8 hPa -
Précipitations: 0.0 mm    
Historical Graphs
 
 
Mesures pour : Novembre 16, 2017
Heure Temperature Point de rosée Pression Vent Vitesse du vent Rafales Humidité Pluie (par heure) Conditions
TemperatureC °C DewpointC °C PressurehPa hPa Calm     Humidity % HourlyPrecipMM mm SoftwareType W/m2
00:10 10.1 °C 0.4 °C 1016.1 hPa Calm     51 % 0.0 mm open2300-1.11 W/m2
01:11 10.2 °C 0.3 °C 1016.1 hPa Calm     50 % 0.0 mm open2300-1.11 W/m2
02:10 10.5 °C 0.6 °C 1016.1 hPa Calm     50 % 0.0 mm open2300-1.11 W/m2
03:11 10.1 °C 0.2 °C 1016.1 hPa Calm     50 % 0.0 mm open2300-1.11 W/m2
05:11 10.2 °C 0.3 °C 1015.8 hPa Calm     50 % 0.0 mm open2300-1.11 W/m2
06:10 9.8 °C 0.2 °C 1015.8 hPa Calm     51 % 0.0 mm open2300-1.11 W/m2
07:11 9.8 °C 0.4 °C 1016.1 hPa Calm     52 % 0.0 mm open2300-1.11 W/m2
08:10 9.8 °C 1.2 °C 1016.5 hPa Calm     55 % 0.0 mm open2300-1.11 W/m2
09:11 10.7 °C 2.2 °C 1017.2 hPa Calm     56 % 0.0 mm open2300-1.11 W/m2
10:10 11.9 °C 3.9 °C 1017.2 hPa Calm     58 % 0.0 mm open2300-1.11 W/m2
11:11 13.5 °C 6.3 °C 1017.5 hPa Calm     62 % 0.0 mm open2300-1.11 W/m2
12:10 14.3 °C 7.3 °C 1017.2 hPa Calm     63 % 0.0 mm open2300-1.11 W/m2
13:11 14.9 °C 5.9 °C 1016.8 hPa Calm     55 % 0.0 mm open2300-1.11 W/m2
14:10 15.1 °C 5.3 °C 1016.1 hPa Calm     52 % 0.0 mm open2300-1.11 W/m2
15:11 15.3 °C 5.5 °C 1015.8 hPa Calm     52 % 0.0 mm open2300-1.11 W/m2
16:10 14.4 °C 5.2 °C 1015.1 hPa Calm     54 % 0.0 mm open2300-1.11 W/m2
17:11 12.9 °C 2.7 °C 1015.5 hPa Calm     50 % 0.0 mm open2300-1.11 W/m2
18:10 11.3 °C 2.0 °C 1015.1 hPa Calm     53 % 0.0 mm open2300-1.11 W/m2
19:11 10.6 °C 1.7 °C 1015.1 hPa Calm     54 % 0.0 mm open2300-1.11 W/m2
20:10 10.7 °C 1.7 °C 1014.8 hPa Calm   2.3 km/h 54 % 0.0 mm open2300-1.11 W/m2
21:11 10.3 °C 1.1 °C 1015.1 hPa Calm     53 % 0.0 mm open2300-1.11 W/m2
22:10 9.5 °C 1.1 °C 1014.8 hPa Calm     56 % 0.0 mm open2300-1.11 W/m2
23:11 9.2 °C 1.6 °C 1014.8 hPa Calm     59 % 0.0 mm open2300-1.11 W/m2
Observations météo à CASSIS
WU-History script by Weather Underground - 1 mb